createdAt,value
2018-09-18T00:00:05.568Z,19.97
2018-09-18T00:01:05.551Z,19.99
2018-09-18T00:02:05.530Z,19.96
2018-09-18T00:03:05.512Z,20.05
2018-09-18T00:04:05.499Z,19.99
2018-09-18T00:05:05.476Z,19.90
2018-09-18T00:06:05.461Z,19.92
2018-09-18T00:07:05.452Z,19.92
2018-09-18T00:08:05.421Z,19.93
2018-09-18T00:09:05.415Z,19.99
2018-09-18T00:10:05.391Z,19.84
2018-09-18T00:11:05.370Z,19.90
2018-09-18T00:12:05.363Z,19.96
2018-09-18T00:13:05.336Z,19.97
2018-09-18T00:14:05.323Z,19.94
2018-09-18T00:15:05.311Z,19.93
2018-09-18T00:16:05.291Z,19.90
2018-09-18T00:17:05.273Z,19.82
2018-09-18T00:18:05.253Z,19.94
2018-09-18T00:19:05.239Z,19.86
2018-09-18T00:20:05.221Z,19.99
2018-09-18T00:21:05.197Z,20.00
2018-09-18T00:22:05.186Z,19.97
2018-09-18T00:23:05.172Z,20.02
2018-09-18T00:24:05.152Z,19.96
2018-09-18T00:25:05.132Z,20.07
2018-09-18T00:26:05.114Z,20.07
2018-09-18T00:27:05.099Z,20.04
2018-09-18T00:28:05.084Z,20.08
2018-09-18T00:29:05.074Z,20.14
2018-09-18T00:30:05.059Z,20.02
2018-09-18T00:31:05.034Z,20.07
2018-09-18T00:32:05.028Z,20.07
2018-09-18T00:33:05.006Z,20.08
2018-09-18T00:34:04.980Z,20.05
2018-09-18T00:35:04.960Z,20.07
2018-09-18T00:36:04.943Z,20.04
2018-09-18T00:37:04.941Z,20.05
2018-09-18T00:38:04.903Z,20.08
2018-09-18T00:39:04.889Z,20.07
2018-09-18T00:40:04.878Z,20.08
2018-09-18T00:41:04.862Z,20.04
2018-09-18T00:42:04.846Z,20.09
2018-09-18T00:43:04.827Z,20.08
2018-09-18T00:44:04.802Z,20.02
2018-09-18T00:45:04.780Z,20.08
2018-09-18T00:46:04.770Z,19.94
2018-09-18T00:47:04.747Z,20.00
2018-09-18T00:48:04.735Z,20.07
2018-09-18T00:49:04.718Z,20.00
2018-09-18T00:50:04.697Z,20.07
2018-09-18T00:51:04.684Z,20.02
2018-09-18T00:52:04.666Z,20.02
2018-09-18T00:53:04.654Z,20.05
2018-09-18T00:54:04.632Z,19.97
2018-09-18T00:55:04.614Z,20.02
2018-09-18T00:56:04.605Z,20.02
2018-09-18T00:57:04.574Z,20.05
2018-09-18T00:58:04.564Z,20.04
2018-09-18T00:59:04.550Z,20.07
2018-09-18T01:00:04.524Z,19.99
2018-09-18T01:01:04.519Z,20.08
2018-09-18T01:02:04.493Z,20.08
2018-09-18T01:03:04.473Z,20.05
2018-09-18T01:04:04.461Z,19.93
2018-09-18T01:05:04.444Z,20.07
2018-09-18T01:06:04.421Z,20.04
2018-09-18T01:07:04.406Z,20.04
2018-09-18T01:08:04.389Z,20.04
2018-09-18T01:09:04.369Z,20.02
2018-09-18T01:10:04.356Z,20.05
2018-09-18T01:11:04.334Z,19.96
2018-09-18T01:12:04.318Z,19.94
2018-09-18T01:13:04.302Z,19.90
2018-09-18T01:14:04.281Z,19.90
2018-09-18T01:15:04.269Z,19.90
2018-09-18T01:16:04.250Z,19.97
2018-09-18T01:17:04.230Z,19.93
2018-09-18T01:18:04.213Z,19.92
2018-09-18T01:19:11.143Z,19.90
2018-09-18T01:20:04.178Z,19.86
2018-09-18T01:21:04.164Z,19.84
2018-09-18T01:22:04.142Z,19.93
2018-09-18T01:23:04.127Z,19.94
2018-09-18T01:24:04.111Z,19.82
2018-09-18T01:25:04.093Z,19.86
2018-09-18T01:26:04.075Z,19.81
2018-09-18T01:27:04.055Z,19.87
2018-09-18T01:28:04.038Z,19.81
2018-09-18T01:29:04.149Z,19.79
2018-09-18T01:30:04.002Z,19.84
2018-09-18T01:31:03.990Z,19.86
2018-09-18T01:32:03.972Z,19.90
2018-09-18T01:33:03.954Z,19.82
2018-09-18T01:34:03.936Z,19.90
2018-09-18T01:35:03.919Z,19.90
2018-09-18T01:36:03.902Z,19.93
2018-09-18T01:37:03.881Z,19.87
2018-09-18T01:38:03.866Z,19.78
2018-09-18T01:39:03.856Z,19.75
2018-09-18T01:40:03.832Z,19.81
2018-09-18T01:41:03.809Z,19.77
2018-09-18T01:42:03.798Z,19.78
2018-09-18T01:43:03.779Z,19.75
2018-09-18T01:44:03.764Z,19.75
2018-09-18T01:45:03.742Z,19.79
2018-09-18T01:46:03.727Z,19.81
2018-09-18T01:47:03.708Z,19.78
2018-09-18T01:48:03.697Z,19.74
2018-09-18T01:49:03.676Z,19.84
2018-09-18T01:50:03.662Z,19.89
2018-09-18T01:51:03.643Z,19.84
2018-09-18T01:52:03.621Z,19.90
2018-09-18T01:53:03.604Z,19.92
2018-09-18T01:54:03.588Z,19.89
2018-09-18T01:55:03.570Z,19.94
2018-09-18T01:56:03.556Z,19.82
2018-09-18T01:57:03.542Z,19.87
2018-09-18T01:58:03.523Z,19.87
2018-09-18T01:59:03.501Z,19.94
2018-09-18T02:00:03.496Z,19.87
2018-09-18T02:01:03.467Z,20.00
2018-09-18T02:02:03.451Z,20.00
2018-09-18T02:03:03.435Z,20.08
2018-09-18T02:04:03.415Z,20.04
2018-09-18T02:05:03.407Z,20.05
2018-09-18T02:06:03.380Z,20.05
2018-09-18T02:07:03.365Z,20.07
2018-09-18T02:08:03.347Z,19.99
2018-09-18T02:09:03.329Z,20.07
2018-09-18T02:10:03.308Z,20.05
2018-09-18T02:11:03.288Z,20.07
2018-09-18T02:12:03.275Z,20.05
2018-09-18T02:13:03.256Z,20.07
2018-09-18T02:14:03.241Z,20.02
2018-09-18T02:15:03.231Z,19.96
2018-09-18T02:16:03.209Z,20.07
2018-09-18T02:17:03.189Z,20.09
2018-09-18T02:18:03.170Z,20.07
2018-09-18T02:19:03.153Z,20.07
2018-09-18T02:20:03.137Z,20.00
2018-09-18T02:21:03.118Z,20.07
2018-09-18T02:22:03.109Z,19.99
2018-09-18T02:23:03.084Z,20.04
2018-09-18T02:24:03.076Z,19.92
2018-09-18T02:25:03.050Z,19.96
2018-09-18T02:26:03.035Z,20.00
2018-09-18T02:27:03.013Z,19.96
2018-09-18T02:28:02.999Z,20.07
2018-09-18T02:29:02.985Z,20.05
2018-09-18T02:30:02.962Z,19.90
2018-09-18T02:31:02.946Z,19.96
2018-09-18T02:32:02.930Z,19.93
2018-09-18T02:33:02.916Z,19.90
2018-09-18T02:34:02.896Z,19.96
2018-09-18T02:35:02.876Z,19.89
2018-09-18T02:36:02.866Z,19.94
2018-09-18T02:37:02.845Z,19.92
2018-09-18T02:38:02.824Z,19.89
2018-09-18T02:39:02.810Z,19.92
2018-09-18T02:40:02.795Z,19.92
2018-09-18T02:41:02.770Z,19.97
2018-09-18T02:42:02.753Z,19.93
2018-09-18T02:43:02.740Z,20.00
2018-09-18T02:44:02.717Z,20.00
2018-09-18T02:45:02.706Z,20.00
2018-09-18T02:46:02.683Z,19.99
2018-09-18T02:47:02.668Z,20.02
2018-09-18T02:48:02.651Z,20.05
2018-09-18T02:49:02.634Z,20.00
2018-09-18T02:50:02.629Z,19.92
2018-09-18T02:51:02.599Z,20.00
2018-09-18T02:52:02.580Z,20.00
2018-09-18T02:53:02.564Z,20.05
2018-09-18T02:54:02.550Z,20.07
2018-09-18T02:55:02.526Z,20.05
2018-09-18T02:56:02.512Z,20.05
2018-09-18T02:57:02.509Z,19.99
2018-09-18T02:58:02.469Z,20.00
2018-09-18T02:59:02.451Z,20.05
2018-09-18T03:00:02.441Z,19.99
2018-09-18T03:01:02.423Z,20.02
2018-09-18T03:02:02.404Z,20.02
2018-09-18T03:03:02.392Z,20.02
2018-09-18T03:04:02.370Z,20.04
2018-09-18T03:05:02.350Z,20.02
2018-09-18T03:06:02.342Z,19.96
2018-09-18T03:07:02.321Z,19.94
2018-09-18T03:08:02.299Z,19.96
2018-09-18T03:09:02.286Z,20.00
2018-09-18T03:10:02.280Z,19.93
2018-09-18T03:11:02.268Z,20.07
2018-09-18T03:12:02.225Z,19.92
2018-09-18T03:13:02.215Z,19.97
2018-09-18T03:14:02.193Z,20.00
2018-09-18T03:15:02.183Z,19.99
2018-09-18T03:16:02.157Z,20.02
2018-09-18T03:17:02.144Z,19.90
2018-09-18T03:18:02.130Z,20.05
2018-09-18T03:19:02.123Z,20.02
2018-09-18T03:20:02.092Z,20.02
2018-09-18T03:21:02.124Z,20.04
2018-09-18T03:22:02.052Z,20.05
2018-09-18T03:23:02.035Z,20.00
2018-09-18T03:24:02.024Z,19.97
2018-09-18T03:25:02.008Z,20.02
2018-09-18T03:26:01.989Z,20.05
2018-09-18T03:27:01.977Z,19.93
2018-09-18T03:28:01.951Z,20.04
2018-09-18T03:29:01.937Z,20.05
2018-09-18T03:30:01.920Z,20.00
2018-09-18T03:31:01.902Z,20.08
2018-09-18T03:32:01.883Z,20.07
2018-09-18T03:33:01.868Z,20.04
2018-09-18T03:34:01.851Z,20.08
2018-09-18T03:35:01.836Z,20.15
2018-09-18T03:36:01.816Z,20.17
2018-09-18T03:37:01.798Z,20.17
2018-09-18T03:38:01.781Z,20.17
2018-09-18T03:39:01.764Z,20.12
2018-09-18T03:40:01.746Z,20.14
2018-09-18T03:41:01.736Z,20.11
2018-09-18T03:42:01.715Z,20.11
2018-09-18T03:43:01.698Z,20.14
2018-09-18T03:44:01.679Z,20.17
2018-09-18T03:45:01.668Z,20.05
2018-09-18T03:46:01.642Z,19.99
2018-09-18T03:47:01.624Z,20.07
2018-09-18T03:48:01.607Z,20.00
2018-09-18T03:49:01.586Z,20.02
2018-09-18T03:50:01.578Z,19.96
2018-09-18T03:51:01.559Z,19.99
2018-09-18T03:52:01.538Z,20.00
2018-09-18T03:53:01.524Z,20.05
2018-09-18T03:54:01.506Z,20.00
2018-09-18T03:55:01.485Z,20.02
2018-09-18T03:56:01.468Z,19.96
2018-09-18T03:57:01.450Z,19.97
2018-09-18T03:58:01.433Z,20.00
2018-09-18T03:59:01.417Z,20.00
2018-09-18T04:00:01.399Z,20.05
2018-09-18T04:01:01.383Z,20.05
2018-09-18T04:02:01.375Z,20.04
2018-09-18T04:03:01.444Z,20.07
2018-09-18T04:04:01.328Z,19.97
2018-09-18T04:05:01.310Z,20.02
2018-09-18T04:06:01.294Z,19.94
2018-09-18T04:07:01.281Z,20.05
2018-09-18T04:08:01.254Z,19.99
2018-09-18T04:09:01.243Z,19.99
2018-09-18T04:10:01.218Z,19.99
2018-09-18T04:11:01.206Z,20.09
2018-09-18T04:12:01.190Z,20.12
2018-09-18T04:13:01.174Z,20.15
2018-09-18T04:14:01.153Z,20.12
2018-09-18T04:15:01.139Z,20.22
2018-09-18T04:16:01.148Z,20.14
2018-09-18T04:17:01.105Z,20.14
2018-09-18T04:18:01.088Z,20.15
2018-09-18T04:19:01.077Z,20.26
2018-09-18T04:20:01.050Z,20.17
2018-09-18T04:21:01.034Z,20.25
2018-09-18T04:22:01.016Z,20.22
2018-09-18T04:23:00.999Z,20.22
2018-09-18T04:24:00.981Z,20.17
2018-09-18T04:25:00.965Z,20.18
2018-09-18T04:26:00.951Z,20.22
2018-09-18T04:27:00.925Z,20.23
2018-09-18T04:28:00.914Z,20.17
2018-09-18T04:29:00.896Z,20.17
2018-09-18T04:30:00.882Z,20.11
2018-09-18T04:31:00.859Z,20.15
2018-09-18T04:32:00.843Z,20.18
2018-09-18T04:33:00.828Z,20.09
2018-09-18T04:34:00.807Z,20.11
2018-09-18T04:35:00.789Z,20.04
2018-09-18T04:36:00.774Z,20.07
2018-09-18T04:37:00.755Z,20.12
2018-09-18T04:38:00.737Z,20.12
2018-09-18T04:39:00.726Z,20.14
2018-09-18T04:40:00.706Z,20.11
2018-09-18T04:41:00.690Z,20.23
2018-09-18T04:42:00.670Z,20.22
2018-09-18T04:43:00.655Z,20.25
2018-09-18T04:44:00.637Z,20.29
2018-09-18T04:45:00.617Z,20.32
2018-09-18T04:46:00.609Z,20.30
2018-09-18T04:47:00.585Z,20.29
2018-09-18T04:48:00.567Z,20.26
2018-09-18T04:49:00.546Z,20.27
2018-09-18T04:50:00.538Z,20.29
2018-09-18T04:51:00.514Z,20.30
2018-09-18T04:52:00.497Z,20.30
2018-09-18T04:53:00.472Z,20.33
2018-09-18T04:54:00.469Z,20.50
2018-09-18T04:55:00.544Z,20.46
2018-09-18T04:56:00.428Z,20.36
2018-09-18T04:57:00.410Z,20.46
2018-09-18T04:58:00.389Z,20.36
2018-09-18T04:59:00.377Z,20.37
2018-09-18T05:00:00.361Z,20.41
2018-09-18T05:01:00.337Z,20.42
2018-09-18T05:02:00.324Z,20.44
2018-09-18T05:03:00.305Z,20.49
2018-09-18T05:04:00.296Z,20.37
2018-09-18T05:05:00.274Z,20.55
2018-09-18T05:06:00.248Z,20.52
2018-09-18T05:07:00.239Z,20.44
2018-09-18T05:08:00.227Z,20.41
2018-09-18T05:09:00.203Z,20.44
2018-09-18T05:10:00.188Z,20.36
2018-09-18T05:11:00.172Z,20.58
2018-09-18T05:12:00.158Z,20.64
2018-09-18T05:13:00.125Z,20.58
2018-09-18T05:14:00.138Z,20.56
2018-09-18T05:15:00.100Z,20.52
2018-09-18T05:16:00.082Z,20.64
2018-09-18T05:17:00.070Z,20.53
2018-09-18T05:18:00.053Z,20.53
2018-09-18T05:19:00.030Z,20.53
2018-09-18T05:20:00.016Z,20.53
2018-09-18T05:21:00.002Z,20.39
2018-09-18T05:21:59.976Z,20.41
2018-09-18T05:22:59.957Z,20.46
2018-09-18T05:23:59.941Z,20.44
2018-09-18T05:24:59.930Z,20.49
2018-09-18T05:25:59.909Z,20.44
2018-09-18T05:26:59.891Z,20.44
2018-09-18T05:27:59.878Z,20.36
2018-09-18T05:28:59.861Z,20.34
2018-09-18T05:29:59.846Z,20.44
2018-09-18T05:30:59.823Z,20.49
2018-09-18T05:31:59.821Z,20.48
2018-09-18T05:32:59.790Z,20.53
2018-09-18T05:33:59.776Z,20.56
2018-09-18T05:34:59.758Z,20.49
2018-09-18T05:35:59.739Z,20.53
2018-09-18T05:36:59.723Z,20.48
2018-09-18T05:37:59.713Z,20.58
2018-09-18T05:38:59.688Z,20.53
2018-09-18T05:39:59.661Z,20.55
2018-09-18T05:40:59.652Z,20.39
2018-09-18T05:41:59.643Z,20.50
2018-09-18T05:42:59.639Z,20.61
2018-09-18T05:43:59.595Z,20.60
2018-09-18T05:44:59.594Z,20.61
2018-09-18T05:45:59.562Z,20.56
2018-09-18T05:46:59.547Z,20.56
2018-09-18T05:47:59.540Z,20.61
2018-09-18T05:48:59.514Z,20.65
2018-09-18T05:49:59.497Z,20.67
2018-09-18T05:50:59.483Z,20.68
2018-09-18T05:51:59.465Z,20.58
2018-09-18T05:52:59.443Z,20.68
2018-09-18T05:53:59.432Z,20.60
2018-09-18T05:54:59.416Z,20.67
2018-09-18T05:55:59.395Z,20.64
2018-09-18T05:56:59.380Z,20.74
2018-09-18T05:57:59.365Z,20.67
2018-09-18T05:58:59.346Z,20.68
2018-09-18T05:59:59.328Z,20.75
2018-09-18T06:00:59.311Z,20.77
2018-09-18T06:01:59.293Z,20.83
2018-09-18T06:02:59.276Z,20.88
2018-09-18T06:03:59.261Z,20.86
2018-09-18T06:04:59.244Z,20.80
2018-09-18T06:05:59.227Z,20.79
2018-09-18T06:06:59.212Z,20.80
2018-09-18T06:07:59.190Z,20.79
2018-09-18T06:08:59.172Z,20.82
2018-09-18T06:09:59.156Z,20.85
2018-09-18T06:10:59.140Z,20.83
2018-09-18T06:11:59.125Z,20.85
2018-09-18T06:12:59.111Z,20.86
2018-09-18T06:13:59.090Z,20.92
2018-09-18T06:14:59.072Z,20.93
2018-09-18T06:15:59.063Z,20.90
2018-09-18T06:16:59.040Z,20.92
2018-09-18T06:17:59.018Z,20.95
2018-09-18T06:18:59.012Z,20.93
2018-09-18T06:19:58.991Z,20.98
2018-09-18T06:20:58.974Z,20.90
2018-09-18T06:21:58.966Z,20.88
2018-09-18T06:22:58.938Z,21.05
2018-09-18T06:23:58.925Z,21.05
2018-09-18T06:24:58.908Z,21.13
2018-09-18T06:25:58.892Z,21.14
2018-09-18T06:26:58.875Z,21.18
2018-09-18T06:27:58.858Z,21.18
2018-09-18T06:28:58.840Z,21.07
2018-09-18T06:29:58.823Z,21.22
2018-09-18T06:30:58.807Z,21.14
2018-09-18T06:31:58.788Z,21.23
2018-09-18T06:32:58.776Z,21.25
2018-09-18T06:33:58.759Z,21.34
2018-09-18T06:34:58.742Z,21.38
2018-09-18T06:35:58.726Z,21.37
2018-09-18T06:36:58.740Z,21.44
2018-09-18T06:37:58.693Z,21.58
2018-09-18T06:38:58.678Z,21.56
2018-09-18T06:39:58.663Z,21.66
2018-09-18T06:40:58.647Z,21.62
2018-09-18T06:41:58.631Z,21.69
2018-09-18T06:42:58.617Z,21.77
2018-09-18T06:43:58.604Z,21.75
2018-09-18T06:44:58.586Z,21.77
2018-09-18T06:45:58.574Z,21.77
2018-09-18T06:46:58.559Z,21.84
2018-09-18T06:47:58.601Z,21.82
2018-09-18T06:48:58.528Z,21.90
2018-09-18T06:49:58.512Z,21.94
2018-09-18T06:50:58.501Z,21.96
2018-09-18T06:51:58.484Z,21.96
2018-09-18T06:52:58.478Z,22.04
2018-09-18T06:53:58.459Z,22.04
2018-09-18T06:54:58.445Z,22.11
2018-09-18T06:55:58.423Z,22.01
2018-09-18T06:56:58.414Z,22.06
2018-09-18T06:57:58.400Z,22.21
2018-09-18T06:58:58.388Z,22.19
2018-09-18T06:59:58.371Z,22.11
2018-09-18T07:00:58.358Z,22.22
2018-09-18T07:01:58.345Z,22.19
2018-09-18T07:02:58.330Z,22.25
2018-09-18T07:03:58.319Z,22.31
2018-09-18T07:04:58.305Z,22.38
2018-09-18T07:05:58.290Z,22.34
2018-09-18T07:06:58.281Z,22.36
2018-09-18T07:07:58.263Z,22.46
2018-09-18T07:08:58.249Z,22.55
2018-09-18T07:09:58.236Z,22.56
2018-09-18T07:10:58.224Z,22.66
2018-09-18T07:11:58.212Z,22.67
2018-09-18T07:12:58.207Z,22.71
2018-09-18T07:13:58.179Z,22.76
2018-09-18T07:14:58.167Z,22.70
2018-09-18T07:15:58.161Z,22.77
2018-09-18T07:16:58.153Z,22.81
2018-09-18T07:17:58.145Z,22.83
2018-09-18T07:18:58.122Z,22.77
2018-09-18T07:19:58.121Z,22.77
2018-09-18T07:20:58.093Z,22.78
2018-09-18T07:21:58.077Z,22.80
2018-09-18T07:22:58.067Z,22.86
2018-09-18T07:23:58.056Z,22.95
2018-09-18T07:24:58.146Z,22.91
2018-09-18T07:25:58.026Z,23.03
2018-09-18T07:26:58.015Z,22.99
2018-09-18T07:27:58.002Z,22.98
2018-09-18T07:28:57.994Z,22.98
2018-09-18T07:29:57.981Z,22.98
2018-09-18T07:30:57.962Z,23.04
2018-09-18T07:31:57.948Z,23.04
2018-09-18T07:32:57.937Z,23.07
2018-09-18T07:33:57.978Z,23.07
2018-09-18T07:34:57.911Z,23.13
2018-09-18T07:35:57.894Z,23.17
2018-09-18T07:36:57.879Z,23.23
2018-09-18T07:37:57.880Z,23.29
2018-09-18T07:38:57.854Z,23.31
2018-09-18T07:39:57.839Z,23.34
2018-09-18T07:40:57.845Z,23.41
2018-09-18T07:41:57.808Z,23.46
2018-09-18T07:42:57.813Z,23.55
2018-09-18T07:43:57.784Z,23.48
2018-09-18T07:44:57.775Z,23.52
2018-09-18T07:45:57.771Z,23.52
2018-09-18T07:46:57.961Z,23.63
2018-09-18T07:47:57.733Z,23.55
2018-09-18T07:48:57.740Z,23.70
2018-09-18T07:49:57.702Z,23.67
2018-09-18T07:50:57.747Z,23.71
2018-09-18T07:51:57.680Z,23.78
2018-09-18T07:52:57.656Z,23.79
2018-09-18T07:53:57.647Z,23.91
2018-09-18T07:54:57.638Z,23.81
2018-09-18T07:55:57.623Z,23.92
2018-09-18T07:56:57.610Z,23.89
2018-09-18T07:57:57.594Z,23.88
2018-09-18T07:58:57.582Z,23.98
2018-09-18T07:59:57.569Z,23.97
2018-09-18T08:00:57.554Z,24.01
2018-09-18T08:01:57.563Z,24.04
2018-09-18T08:02:57.530Z,24.03
2018-09-18T08:03:57.519Z,24.06
2018-09-18T08:04:57.771Z,24.15
2018-09-18T08:05:57.479Z,24.18
2018-09-18T08:06:57.759Z,24.19
2018-09-18T08:07:57.464Z,24.23
2018-09-18T08:08:57.445Z,24.26
2018-09-18T08:09:57.422Z,24.34
2018-09-18T08:10:57.507Z,24.34
2018-09-18T08:11:57.395Z,24.31
2018-09-18T08:12:57.389Z,24.37
2018-09-18T08:13:57.372Z,24.47
2018-09-18T08:14:57.569Z,24.44
2018-09-18T08:15:57.344Z,24.47
2018-09-18T08:16:57.950Z,24.53
2018-09-18T08:17:57.324Z,24.53
2018-09-18T08:18:57.447Z,24.58
2018-09-18T08:19:57.374Z,24.68
2018-09-18T08:20:57.276Z,24.66
2018-09-18T08:21:57.291Z,24.66
2018-09-18T08:22:57.265Z,24.68
2018-09-18T08:23:57.241Z,24.81
2018-09-18T08:24:57.640Z,24.76
2018-09-18T08:25:57.224Z,24.81
2018-09-18T08:26:57.198Z,24.79
2018-09-18T08:27:57.189Z,24.91
2018-09-18T08:28:57.175Z,25.00
2018-09-18T08:29:57.159Z,24.93
2018-09-18T08:30:57.195Z,24.90
2018-09-18T08:31:57.132Z,24.89
2018-09-18T08:32:57.231Z,25.00
2018-09-18T08:33:57.105Z,25.01
2018-09-18T08:34:57.096Z,25.11
2018-09-18T08:35:57.075Z,25.18
2018-09-18T08:36:57.063Z,25.11
2018-09-18T08:37:57.053Z,25.27
2018-09-18T08:38:57.057Z,25.21
2018-09-18T08:39:57.153Z,25.21
2018-09-18T08:40:57.013Z,25.26
2018-09-18T08:41:56.999Z,25.41
2018-09-18T08:42:57.062Z,25.36
2018-09-18T08:43:56.980Z,25.48
2018-09-18T08:44:56.970Z,25.43
2018-09-18T08:45:56.942Z,25.55
2018-09-18T08:46:56.954Z,25.55
2018-09-18T08:47:56.938Z,25.52
2018-09-18T08:48:56.912Z,25.67
2018-09-18T08:49:56.899Z,25.71
2018-09-18T08:50:56.911Z,25.83
2018-09-18T08:51:56.967Z,25.83
2018-09-18T08:52:56.962Z,25.89
2018-09-18T08:53:56.852Z,26.01
2018-09-18T08:54:56.839Z,26.03
2018-09-18T08:55:56.827Z,26.07
2018-09-18T08:56:56.823Z,26.15
2018-09-18T08:57:56.808Z,26.20
2018-09-18T08:58:56.803Z,26.27
2018-09-18T08:59:56.773Z,26.27
2018-09-18T09:00:56.754Z,26.27
2018-09-18T09:01:56.743Z,26.38
2018-09-18T09:02:56.730Z,26.38
2018-09-18T09:03:56.807Z,26.45
2018-09-18T09:04:56.713Z,26.46
2018-09-18T09:05:56.771Z,26.43
2018-09-18T09:06:56.711Z,26.53
2018-09-18T09:07:56.837Z,26.56
2018-09-18T09:08:56.909Z,26.56
2018-09-18T09:09:56.643Z,26.53
2018-09-18T09:10:56.639Z,26.57
2018-09-18T09:11:56.629Z,26.61
2018-09-18T09:12:56.622Z,26.65
2018-09-18T09:13:56.601Z,26.56
2018-09-18T09:14:56.600Z,26.56
2018-09-18T09:15:56.843Z,26.61
2018-09-18T09:16:56.565Z,26.57
2018-09-18T09:17:56.638Z,26.65
2018-09-18T09:18:56.576Z,26.67
2018-09-18T09:19:56.525Z,26.64
2018-09-18T09:20:56.605Z,26.78
2018-09-18T09:21:56.570Z,26.73
2018-09-18T09:22:56.612Z,26.76
2018-09-18T09:23:56.492Z,26.79
2018-09-18T09:24:56.466Z,26.71
2018-09-18T09:25:56.451Z,26.70
2018-09-18T09:26:56.501Z,26.76
2018-09-18T09:27:56.486Z,26.80
2018-09-18T09:28:56.430Z,26.82
2018-09-18T09:29:56.508Z,26.79
2018-09-18T09:30:56.393Z,26.82
2018-09-18T09:31:56.419Z,26.82
2018-09-18T09:32:56.376Z,26.90
2018-09-18T09:33:56.367Z,26.97
2018-09-18T09:34:56.381Z,26.95
2018-09-18T09:35:56.352Z,26.97
2018-09-18T09:36:56.353Z,27.05
2018-09-18T09:37:56.325Z,27.10
2018-09-18T09:38:56.356Z,27.10
2018-09-18T09:39:56.286Z,27.15
2018-09-18T09:40:56.290Z,27.19
2018-09-18T09:41:56.260Z,27.23
2018-09-18T09:42:56.251Z,27.19
2018-09-18T09:43:56.254Z,27.30
2018-09-18T09:44:56.235Z,27.23
2018-09-18T09:45:56.219Z,27.30
2018-09-18T09:46:56.203Z,27.41
2018-09-18T09:47:56.199Z,27.44
2018-09-18T09:48:56.182Z,27.44
2018-09-18T09:49:56.176Z,27.52
2018-09-18T09:50:56.154Z,27.53
2018-09-18T09:51:56.156Z,27.53
2018-09-18T09:52:56.469Z,27.64
2018-09-18T09:53:56.124Z,27.64
2018-09-18T09:54:56.112Z,27.54
2018-09-18T09:55:56.226Z,27.58
2018-09-18T09:56:56.268Z,27.63
2018-09-18T09:57:56.081Z,27.72
2018-09-18T09:58:56.899Z,27.64
2018-09-18T09:59:56.176Z,27.75
2018-09-18T10:00:57.008Z,27.93
2018-09-18T10:01:56.463Z,27.90
2018-09-18T10:02:56.512Z,27.83
2018-09-18T10:03:56.022Z,27.91
2018-09-18T10:04:56.001Z,27.91
2018-09-18T10:05:56.311Z,27.83
2018-09-18T10:06:56.282Z,27.90
2018-09-18T10:07:56.102Z,27.97
2018-09-18T10:08:55.963Z,28.00
2018-09-18T10:09:55.953Z,28.01
2018-09-18T10:10:56.027Z,28.05
2018-09-18T10:11:55.926Z,28.01
2018-09-18T10:12:55.992Z,28.16
2018-09-18T10:13:55.907Z,28.22
2018-09-18T10:14:55.892Z,28.19
2018-09-18T10:15:55.881Z,28.25
2018-09-18T10:16:55.870Z,28.20
2018-09-18T10:17:55.953Z,28.24
2018-09-18T10:18:55.847Z,28.31
2018-09-18T10:19:55.838Z,28.34
2018-09-18T10:20:55.852Z,28.34
2018-09-18T10:21:55.814Z,28.34
2018-09-18T10:22:55.803Z,28.34
2018-09-18T10:23:55.796Z,28.44
2018-09-18T10:24:55.794Z,28.47
2018-09-18T10:25:55.787Z,28.37
2018-09-18T10:26:55.847Z,28.52
2018-09-18T10:27:55.770Z,28.49
2018-09-18T10:28:55.745Z,28.56
2018-09-18T10:29:55.734Z,28.52
2018-09-18T10:30:55.757Z,28.47
2018-09-18T10:31:55.725Z,28.43
2018-09-18T10:32:55.756Z,28.49
2018-09-18T10:33:55.718Z,28.47
2018-09-18T10:34:55.701Z,28.49
2018-09-18T10:35:55.669Z,28.68
2018-09-18T10:36:55.677Z,28.64
2018-09-18T10:37:55.654Z,28.66
2018-09-18T10:38:55.643Z,28.64
2018-09-18T10:39:55.639Z,28.62
2018-09-18T10:40:55.811Z,28.69
2018-09-18T10:41:55.697Z,28.71
2018-09-18T10:42:55.703Z,28.69
2018-09-18T10:43:55.585Z,28.75
2018-09-18T10:44:55.592Z,28.80
2018-09-18T10:45:55.564Z,28.77
2018-09-18T10:46:55.555Z,28.75
2018-09-18T10:47:55.550Z,28.75
2018-09-18T10:48:55.526Z,28.77
2018-09-18T10:49:55.524Z,28.72
2018-09-18T10:50:55.521Z,28.71
2018-09-18T10:51:55.495Z,28.77
2018-09-18T10:52:55.485Z,28.71
2018-09-18T10:53:55.477Z,28.66
2018-09-18T10:54:55.462Z,28.65
2018-09-18T10:55:55.474Z,28.68
2018-09-18T10:56:55.442Z,28.68
2018-09-18T10:57:55.449Z,28.75
2018-09-18T10:58:55.424Z,28.74
2018-09-18T10:59:55.421Z,28.90
2018-09-18T11:00:55.459Z,28.96
2018-09-18T11:01:55.505Z,28.91
2018-09-18T11:02:55.377Z,28.91
2018-09-18T11:03:55.389Z,28.98
2018-09-18T11:04:55.361Z,29.03
2018-09-18T11:05:55.348Z,28.96
2018-09-18T11:06:55.424Z,29.09
2018-09-18T11:07:55.417Z,29.18
2018-09-18T11:08:55.430Z,29.19
2018-09-18T11:09:55.506Z,29.21
2018-09-18T11:10:55.294Z,29.28
2018-09-18T11:11:55.424Z,29.36
2018-09-18T11:12:55.460Z,29.33
2018-09-18T11:13:55.332Z,29.36
2018-09-18T11:14:55.317Z,29.31
2018-09-18T11:15:55.312Z,29.37
2018-09-18T11:16:55.363Z,29.37
2018-09-18T11:17:55.289Z,29.43
2018-09-18T11:18:55.239Z,29.36
2018-09-18T11:19:55.570Z,29.34
2018-09-18T11:20:55.733Z,29.34
2018-09-18T11:21:55.180Z,29.33
2018-09-18T11:22:55.514Z,29.36
2018-09-18T11:23:55.195Z,29.49
2018-09-18T11:24:55.444Z,29.50
2018-09-18T11:25:55.237Z,29.56
2018-09-18T11:26:55.155Z,29.65
2018-09-18T11:27:55.407Z,29.63
2018-09-18T11:28:55.119Z,29.63
2018-09-18T11:29:55.433Z,29.74
2018-09-18T11:30:55.100Z,29.68
2018-09-18T11:31:55.163Z,29.71
2018-09-18T11:32:55.168Z,29.77
2018-09-18T11:33:55.186Z,29.83
2018-09-18T11:34:55.063Z,29.83
2018-09-18T11:35:55.161Z,29.86
2018-09-18T11:36:55.028Z,29.80
2018-09-18T11:37:55.025Z,29.78
2018-09-18T11:38:55.005Z,29.81
2018-09-18T11:39:54.994Z,29.77
2018-09-18T11:40:55.047Z,29.93
2018-09-18T11:41:54.976Z,29.96
2018-09-18T11:42:54.983Z,29.98
2018-09-18T11:43:55.054Z,30.03
2018-09-18T11:44:55.007Z,30.03
2018-09-18T11:45:55.119Z,30.22
2018-09-18T11:46:54.930Z,30.20
2018-09-18T11:47:54.915Z,30.24
2018-09-18T11:48:54.907Z,30.28
2018-09-18T11:49:54.900Z,30.26
2018-09-18T11:50:54.890Z,30.32
2018-09-18T11:51:54.891Z,30.30
2018-09-18T11:52:54.953Z,30.35
2018-09-18T11:53:54.863Z,30.36
2018-09-18T11:54:54.898Z,30.46
2018-09-18T11:55:54.845Z,30.53
2018-09-18T11:56:55.212Z,30.49
2018-09-18T11:57:54.827Z,30.46
2018-09-18T11:58:54.810Z,30.40
2018-09-18T11:59:54.798Z,30.46
2018-09-18T12:00:54.813Z,30.37
2018-09-18T12:01:54.797Z,30.22
2018-09-18T12:02:54.883Z,30.29
2018-09-18T12:03:55.561Z,30.24
2018-09-18T12:04:54.759Z,30.32
2018-09-18T12:05:55.559Z,30.29
2018-09-18T12:06:54.743Z,30.24
2018-09-18T12:07:54.745Z,30.35
2018-09-18T12:08:54.730Z,30.51
2018-09-18T12:09:54.701Z,30.46
2018-09-18T12:10:54.723Z,30.58
2018-09-18T12:11:54.690Z,30.49
2018-09-18T12:12:54.683Z,30.55
2018-09-18T12:13:54.921Z,30.51
2018-09-18T12:14:54.653Z,30.58
2018-09-18T12:15:54.748Z,30.60
2018-09-18T12:16:54.963Z,30.60
2018-09-18T12:17:54.632Z,30.62
2018-09-18T12:18:54.630Z,30.64
2018-09-18T12:19:54.609Z,30.65
2018-09-18T12:20:54.597Z,30.58
2018-09-18T12:21:54.600Z,30.68
2018-09-18T12:22:54.597Z,30.65
2018-09-18T12:23:54.568Z,30.59
2018-09-18T12:24:54.637Z,30.74
2018-09-18T12:25:55.138Z,30.68
2018-09-18T12:26:54.543Z,30.82
2018-09-18T12:27:54.542Z,30.82
2018-09-18T12:28:54.543Z,30.82
2018-09-18T12:29:54.517Z,30.85
2018-09-18T12:30:54.507Z,30.92
2018-09-18T12:31:54.494Z,30.92
2018-09-18T12:32:54.525Z,30.93
2018-09-18T12:33:54.471Z,30.86
2018-09-18T12:34:54.486Z,30.88
2018-09-18T12:35:54.534Z,30.90
2018-09-18T12:36:54.446Z,30.92
2018-09-18T12:37:54.431Z,30.97
2018-09-18T12:38:54.426Z,30.88
2018-09-18T12:39:54.424Z,30.95
2018-09-18T12:40:54.418Z,31.05
2018-09-18T12:41:54.552Z,31.19
2018-09-18T12:42:54.437Z,31.05
2018-09-18T12:43:54.382Z,30.99
2018-09-18T12:44:54.380Z,31.01
2018-09-18T12:45:54.391Z,31.02
2018-09-18T12:46:54.352Z,30.86
2018-09-18T12:47:54.350Z,30.95
2018-09-18T12:48:54.405Z,30.90
2018-09-18T12:49:54.647Z,30.92
2018-09-18T12:50:54.351Z,30.95
2018-09-18T12:51:54.315Z,30.96